Old Houlka, Mississippi
Current Conditions -  °F | °C
As of 1:53 PM on Sunday 25 Jan 2015 (Local Time) from KTUP Reporting Station
Overcast Overcast  
Wind Chill: 57°   Ceiling: 9000
Heat Index: 57°   Visibility: 10mi
Dew Point: 44°   Wind: 8mph
Humidity: 62%   Direction: 280°W
Pressure: 29.69"   Gusts: NA
Location:  34.0577°N, 89.0762°W
Report Text: KTUP 251953Z 28007KT 10SM FEW042 FEW050 OVC090 14/07 A2969 RMK AO2 RAB24E47 SLP053 P0001 T01390067
Loading
Personal Weather Stations






























Interactive Weather Map New forecast layout! Learn more

10-Day Weather Forecast

Advertisements
Track Severe Weather on mobile